sensor_id;sensor_type;location;lat;lon;timestamp;pressure;altitude;pressure_sealevel;temperature;humidity
50977;BME280;36992;48.200;12.418;2023-02-16T00:01:15;97833.44;;;3.73;55.41
50977;BME280;36992;48.200;12.418;2023-02-16T00:03:42;97836.56;;;3.70;55.63
50977;BME280;36992;48.200;12.418;2023-02-16T00:06:08;97828.56;;;3.70;55.63
50977;BME280;36992;48.200;12.418;2023-02-16T00:08:38;97820.78;;;3.68;55.69
50977;BME280;36992;48.200;12.418;2023-02-16T00:11:12;97826.47;;;3.72;55.43
50977;BME280;36992;48.200;12.418;2023-02-16T00:13:57;97824.25;;;3.69;55.37
50977;BME280;36992;48.200;12.418;2023-02-16T00:16:24;97827.94;;;3.68;55.30
50977;BME280;36992;48.200;12.418;2023-02-16T00:18:51;97825.28;;;3.68;55.37
50977;BME280;36992;48.200;12.418;2023-02-16T00:21:18;97822.03;;;3.66;55.42
50977;BME280;36992;48.200;12.418;2023-02-16T00:23:45;97815.88;;;3.65;55.64
50977;BME280;36992;48.200;12.418;2023-02-16T00:26:15;97817.28;;;3.68;55.57
50977;BME280;36992;48.200;12.418;2023-02-16T00:28:43;97819.38;;;3.66;55.39
50977;BME280;36992;48.200;12.418;2023-02-16T00:31:15;97818.91;;;3.69;55.41
50977;BME280;36992;48.200;12.418;2023-02-16T00:33:43;97825.28;;;3.68;55.81
50977;BME280;36992;48.200;12.418;2023-02-16T00:36:09;97819.94;;;3.68;55.34
50977;BME280;36992;48.200;12.418;2023-02-16T00:38:36;97822.63;;;3.68;55.30
50977;BME280;36992;48.200;12.418;2023-02-16T00:41:02;97826.31;;;3.67;55.28
50977;BME280;36992;48.200;12.418;2023-02-16T00:43:30;97823.44;;;3.68;55.28
50977;BME280;36992;48.200;12.418;2023-02-16T00:45:57;97817.75;;;3.64;55.42
50977;BME280;36992;48.200;12.418;2023-02-16T00:48:24;97819.78;;;3.62;55.55
50977;BME280;36992;48.200;12.418;2023-02-16T00:50:50;97832.09;;;3.63;55.46
50977;BME280;36992;48.200;12.418;2023-02-16T00:53:17;97825.13;;;3.62;55.59
50977;BME280;36992;48.200;12.418;2023-02-16T00:55:43;97819.00;;;3.62;55.49
50977;BME280;36992;48.200;12.418;2023-02-16T00:58:15;97817.75;;;3.64;55.42
50977;BME280;36992;48.200;12.418;2023-02-16T01:00:47;97821.75;;;3.74;55.08
50977;BME280;36992;48.200;12.418;2023-02-16T01:03:18;97810.34;;;3.67;55.56
50977;BME280;36992;48.200;12.418;2023-02-16T01:05:46;97810.78;;;3.63;55.25
50977;BME280;36992;48.200;12.418;2023-02-16T01:08:14;97805.47;;;3.63;55.23
50977;BME280;36992;48.200;12.418;2023-02-16T01:10:59;97809.13;;;3.62;55.09
50977;BME280;36992;48.200;12.418;2023-02-16T01:13:37;97808.13;;;3.63;55.25
50977;BME280;36992;48.200;12.418;2023-02-16T01:16:12;97816.91;;;3.64;55.08
50977;BME280;36992;48.200;12.418;2023-02-16T01:18:39;97804.25;;;3.59;55.09
50977;BME280;36992;48.200;12.418;2023-02-16T01:21:05;97806.34;;;3.57;54.99
50977;BME280;36992;48.200;12.418;2023-02-16T01:23:32;97803.88;;;3.56;55.08
50977;BME280;36992;48.200;12.418;2023-02-16T01:25:58;97801.44;;;3.54;54.96
50977;BME280;36992;48.200;12.418;2023-02-16T01:28:25;97793.88;;;3.51;55.16
50977;BME280;36992;48.200;12.418;2023-02-16T01:30:52;97791.22;;;3.51;55.17
50977;BME280;36992;48.200;12.418;2023-02-16T01:33:20;97787.53;;;3.52;55.25
50977;BME280;36992;48.200;12.418;2023-02-16T01:35:47;97789.56;;;3.50;55.05
50977;BME280;36992;48.200;12.418;2023-02-16T01:38:16;97783.22;;;3.51;55.04
50977;BME280;36992;48.200;12.418;2023-02-16T01:40:47;97789.56;;;3.50;55.13
50977;BME280;36992;48.200;12.418;2023-02-16T01:43:19;97791.22;;;3.51;55.26
50977;BME280;36992;48.200;12.418;2023-02-16T01:45:50;97784.03;;;3.51;55.16
50977;BME280;36992;48.200;12.418;2023-02-16T01:48:25;97785.28;;;3.49;55.03
50977;BME280;36992;48.200;12.418;2023-02-16T01:50:56;97784.69;;;3.47;55.16
50977;BME280;36992;48.200;12.418;2023-02-16T01:53:30;97781.19;;;3.46;55.22
50977;BME280;36992;48.200;12.418;2023-02-16T01:56:02;97782.47;;;3.44;55.12
50977;BME280;36992;48.200;12.418;2023-02-16T01:58:35;97772.84;;;3.43;55.27
50977;BME280;36992;48.200;12.418;2023-02-16T02:01:40;97768.34;;;3.43;55.18
50977;BME280;36992;48.200;12.418;2023-02-16T02:04:18;97763.44;;;3.40;55.12
50977;BME280;36992;48.200;12.418;2023-02-16T02:07:04;97761.44;;;3.35;55.37
50977;BME280;36992;48.200;12.418;2023-02-16T02:09:36;97769.22;;;3.37;54.95
50977;BME280;36992;48.200;12.418;2023-02-16T02:12:09;97757.72;;;3.36;55.26
50977;BME280;36992;48.200;12.418;2023-02-16T02:14:39;97760.84;;;3.33;55.29
50977;BME280;36992;48.200;12.418;2023-02-16T02:17:07;97759.81;;;3.34;54.73
50977;BME280;36992;48.200;12.418;2023-02-16T02:19:45;97757.72;;;3.36;54.94
50977;BME280;36992;48.200;12.418;2023-02-16T02:26:00;97744.88;;;3.33;54.70
50977;BME280;36992;48.200;12.418;2023-02-16T02:28:38;97742.41;;;3.32;54.77
50977;BME280;36992;48.200;12.418;2023-02-16T02:31:16;97752.25;;;3.31;54.71
50977;BME280;36992;48.200;12.418;2023-02-16T02:33:52;97751.66;;;3.29;54.97
50977;BME280;36992;48.200;12.418;2023-02-16T02:36:27;97759.66;;;3.29;55.01
50977;BME280;36992;48.200;12.418;2023-02-16T02:39:00;97762.03;;;3.37;54.88
50977;BME280;36992;48.200;12.418;2023-02-16T02:41:34;97754.91;;;3.31;54.98
50977;BME280;36992;48.200;12.418;2023-02-16T02:44:23;97754.91;;;3.31;54.93
50977;BME280;36992;48.200;12.418;2023-02-16T02:46:51;97757.19;;;3.28;55.30
50977;BME280;36992;48.200;12.418;2023-02-16T02:49:17;97753.72;;;3.27;55.04
50977;BME280;36992;48.200;12.418;2023-02-16T02:51:44;97752.09;;;3.26;54.83
50977;BME280;36992;48.200;12.418;2023-02-16T02:54:14;97753.28;;;3.30;55.06
50977;BME280;36992;48.200;12.418;2023-02-16T02:57:15;97741.00;;;3.29;54.89
50977;BME280;36992;48.200;12.418;2023-02-16T03:00:05;97751.66;;;3.29;54.87
50977;BME280;36992;48.200;12.418;2023-02-16T03:02:53;97750.25;;;3.27;55.03
50977;BME280;36992;48.200;12.418;2023-02-16T03:05:22;97754.16;;;3.24;55.00
50977;BME280;36992;48.200;12.418;2023-02-16T03:07:54;97751.28;;;3.26;54.90
50977;BME280;36992;48.200;12.418;2023-02-16T03:10:32;97754.78;;;3.26;54.82
50977;BME280;36992;48.200;12.418;2023-02-16T03:13:21;97750.44;;;3.25;54.72
50977;BME280;36992;48.200;12.418;2023-02-16T03:15:50;97750.69;;;3.23;54.81
50977;BME280;36992;48.200;12.418;2023-02-16T03:18:22;97754.41;;;3.22;54.78
50977;BME280;36992;48.200;12.418;2023-02-16T03:21:08;97767.31;;;3.19;54.97
50977;BME280;36992;48.200;12.418;2023-02-16T03:23:55;97752.59;;;3.16;55.27
50977;BME280;36992;48.200;12.418;2023-02-16T03:26:41;97757.94;;;3.16;54.85
50977;BME280;36992;48.200;12.418;2023-02-16T03:29:26;97761.84;;;3.14;54.97
50977;BME280;36992;48.200;12.418;2023-02-16T03:31:54;97758.16;;;3.15;54.84
50977;BME280;36992;48.200;12.418;2023-02-16T03:34:22;97761.22;;;3.12;54.76
50977;BME280;36992;48.200;12.418;2023-02-16T03:36:51;97761.22;;;3.12;54.58
50977;BME280;36992;48.200;12.418;2023-02-16T03:39:22;97761.69;;;3.08;54.77
50977;BME280;36992;48.200;12.418;2023-02-16T03:41:51;97760.06;;;3.07;54.68
50977;BME280;36992;48.200;12.418;2023-02-16T03:44:18;97761.06;;;3.06;54.93
50977;BME280;36992;48.200;12.418;2023-02-16T03:46:46;97758.63;;;3.05;54.84
50977;BME280;36992;48.200;12.418;2023-02-16T03:49:15;97767.41;;;3.05;54.88
50977;BME280;36992;48.200;12.418;2023-02-16T03:51:41;97763.34;;;3.03;55.03
50977;BME280;36992;48.200;12.418;2023-02-16T03:54:08;97765.22;;;3.02;55.12
50977;BME280;36992;48.200;12.418;2023-02-16T03:56:34;97770.53;;;3.02;55.13
50977;BME280;36992;48.200;12.418;2023-02-16T03:59:00;97767.88;;;3.02;54.43
50977;BME280;36992;48.200;12.418;2023-02-16T04:01:27;97770.53;;;3.02;54.74
50977;BME280;36992;48.200;12.418;2023-02-16T04:03:54;97773.63;;;2.99;54.96
50977;BME280;36992;48.200;12.418;2023-02-16T04:06:22;97769.91;;;3.00;55.18
50977;BME280;36992;48.200;12.418;2023-02-16T04:08:48;97772.00;;;2.98;54.85
50977;BME280;36992;48.200;12.418;2023-02-16T04:11:15;97778.34;;;2.97;54.96
50977;BME280;36992;48.200;12.418;2023-02-16T04:13:55;97773.22;;;2.95;55.01
50977;BME280;36992;48.200;12.418;2023-02-16T04:16:21;97779.38;;;2.96;55.32
50977;BME280;36992;48.200;12.418;2023-02-16T04:18:48;97775.09;;;2.95;55.13
50977;BME280;36992;48.200;12.418;2023-02-16T04:21:14;97774.84;;;2.96;55.21
50977;BME280;36992;48.200;12.418;2023-02-16T04:23:42;97772.81;;;2.99;55.10
50977;BME280;36992;48.200;12.418;2023-02-16T04:26:09;97778.13;;;2.99;55.17
50977;BME280;36992;48.200;12.418;2023-02-16T04:28:35;97780.56;;;3.00;54.83
50977;BME280;36992;48.200;12.418;2023-02-16T04:31:02;97782.63;;;2.98;54.74
50977;BME280;36992;48.200;12.418;2023-02-16T04:33:29;97780.19;;;2.96;54.12
50977;BME280;36992;48.200;12.418;2023-02-16T04:35:55;97782.47;;;2.93;54.33
50977;BME280;36992;48.200;12.418;2023-02-16T04:38:22;97778.63;;;2.89;54.68
50977;BME280;36992;48.200;12.418;2023-02-16T04:40:51;97777.78;;;2.88;54.63
50977;BME280;36992;48.200;12.418;2023-02-16T04:43:18;97774.97;;;2.83;54.77
50977;BME280;36992;48.200;12.418;2023-02-16T04:45:44;97771.72;;;2.81;54.95
50977;BME280;36992;48.200;12.418;2023-02-16T04:48:11;97773.78;;;2.79;55.17
50977;BME280;36992;48.200;12.418;2023-02-16T04:50:37;97768.47;;;2.79;54.99
50977;BME280;36992;48.200;12.418;2023-02-16T04:53:04;97772.13;;;2.78;54.95
50977;BME280;36992;48.200;12.418;2023-02-16T04:55:30;97774.00;;;2.77;54.73
50977;BME280;36992;48.200;12.418;2023-02-16T04:57:58;97778.28;;;2.78;55.30
50977;BME280;36992;48.200;12.418;2023-02-16T05:00:25;97778.69;;;2.75;55.00
50977;BME280;36992;48.200;12.418;2023-02-16T05:02:51;97779.50;;;2.76;55.14
50977;BME280;36992;48.200;12.418;2023-02-16T05:05:18;97776.84;;;2.76;55.34
50977;BME280;36992;48.200;12.418;2023-02-16T05:07:44;97781.97;;;2.77;54.93
50977;BME280;36992;48.200;12.418;2023-02-16T05:10:11;97775.81;;;2.77;55.19
50977;BME280;36992;48.200;12.418;2023-02-16T05:12:37;97778.47;;;2.77;54.88
50977;BME280;36992;48.200;12.418;2023-02-16T05:15:23;97778.28;;;2.78;54.70
50977;BME280;36992;48.200;12.418;2023-02-16T05:17:49;97780.09;;;2.78;54.89
50977;BME280;36992;48.200;12.418;2023-02-16T05:20:16;97781.97;;;2.77;54.68
50977;BME280;36992;48.200;12.418;2023-02-16T05:22:42;97781.75;;;2.79;54.21
50977;BME280;36992;48.200;12.418;2023-02-16T05:25:10;97791.00;;;2.76;54.65
50977;BME280;36992;48.200;12.418;2023-02-16T05:27:36;97794.66;;;2.75;54.04
50977;BME280;36992;48.200;12.418;2023-02-16T05:30:04;97796.72;;;2.73;54.17
50977;BME280;36992;48.200;12.418;2023-02-16T05:32:32;97799.84;;;2.70;54.09
50977;BME280;36992;48.200;12.418;2023-02-16T05:34:58;97796.41;;;2.63;54.84
50977;BME280;36992;48.200;12.418;2023-02-16T05:37:25;97803.75;;;2.61;54.74
50977;BME280;36992;48.200;12.418;2023-02-16T05:39:51;97800.72;;;2.57;54.55
50977;BME280;36992;48.200;12.418;2023-02-16T05:42:18;97803.56;;;2.55;54.90
50977;BME280;36992;48.200;12.418;2023-02-16T05:44:44;97802.97;;;2.53;54.69
50977;BME280;36992;48.200;12.418;2023-02-16T05:47:12;97800.53;;;2.52;54.95
50977;BME280;36992;48.200;12.418;2023-02-16T05:49:39;97805.84;;;2.52;55.33
50977;BME280;36992;48.200;12.418;2023-02-16T05:52:06;97803.44;;;2.50;55.39
50977;BME280;36992;48.200;12.418;2023-02-16T05:54:32;97805.06;;;2.51;55.40
50977;BME280;36992;48.200;12.418;2023-02-16T05:56:59;97795.00;;;2.53;55.30
50977;BME280;36992;48.200;12.418;2023-02-16T05:59:25;97791.09;;;2.56;55.54
50977;BME280;36992;48.200;12.418;2023-02-16T06:01:52;97805.81;;;2.59;55.10
50977;BME280;36992;48.200;12.418;2023-02-16T06:04:19;97798.44;;;2.61;54.90
50977;BME280;36992;48.200;12.418;2023-02-16T06:06:47;97801.72;;;2.63;54.87
50977;BME280;36992;48.200;12.418;2023-02-16T06:09:14;97803.56;;;2.62;54.81
50977;BME280;36992;48.200;12.418;2023-02-16T06:11:41;97806.22;;;2.62;54.93
50977;BME280;36992;48.200;12.418;2023-02-16T06:14:09;97816.66;;;2.64;54.58
50977;BME280;36992;48.200;12.418;2023-02-16T06:16:37;97812.38;;;2.63;54.65
50977;BME280;36992;48.200;12.418;2023-02-16T06:19:05;97810.72;;;2.62;54.88
50977;BME280;36992;48.200;12.418;2023-02-16T06:21:32;97809.91;;;2.61;54.33
50977;BME280;36992;48.200;12.418;2023-02-16T06:24:00;97827.50;;;2.62;54.96
50977;BME280;36992;48.200;12.418;2023-02-16T06:26:27;97819.72;;;2.61;54.36
50977;BME280;36992;48.200;12.418;2023-02-16T06:28:54;97822.59;;;2.59;54.28
50977;BME280;36992;48.200;12.418;2023-02-16T06:31:21;97826.06;;;2.60;54.21
50977;BME280;36992;48.200;12.418;2023-02-16T06:33:48;97831.59;;;2.58;53.96
50977;BME280;36992;48.200;12.418;2023-02-16T06:36:14;97829.97;;;2.57;54.04
50977;BME280;36992;48.200;12.418;2023-02-16T06:38:41;97829.19;;;2.56;54.57
50977;BME280;36992;48.200;12.418;2023-02-16T06:41:09;97822.81;;;2.58;53.80
50977;BME280;36992;48.200;12.418;2023-02-16T06:43:36;97826.72;;;2.55;54.40
50977;BME280;36992;48.200;12.418;2023-02-16T06:46:03;97825.91;;;2.54;54.52
50977;BME280;36992;48.200;12.418;2023-02-16T06:48:29;97825.91;;;2.54;54.19
50977;BME280;36992;48.200;12.418;2023-02-16T06:50:56;97824.84;;;2.55;54.43
50977;BME280;36992;48.200;12.418;2023-02-16T06:53:22;97831.00;;;2.56;54.43
50977;BME280;36992;48.200;12.418;2023-02-16T06:55:49;97834.50;;;2.56;54.19
50977;BME280;36992;48.200;12.418;2023-02-16T06:58:17;97839.38;;;2.60;53.85
50977;BME280;36992;48.200;12.418;2023-02-16T07:00:44;97842.25;;;2.58;54.18
50977;BME280;36992;48.200;12.418;2023-02-16T07:03:10;97840.41;;;2.59;54.07
50977;BME280;36992;48.200;12.418;2023-02-16T07:05:37;97844.69;;;2.60;53.97
50977;BME280;36992;48.200;12.418;2023-02-16T07:08:03;97847.34;;;2.60;54.06
50977;BME280;36992;48.200;12.418;2023-02-16T07:10:30;97840.41;;;2.59;53.98
50977;BME280;36992;48.200;12.418;2023-02-16T07:12:56;97841.00;;;2.61;53.84
50977;BME280;36992;48.200;12.418;2023-02-16T07:15:24;97836.31;;;2.63;53.58
50977;BME280;36992;48.200;12.418;2023-02-16T07:17:51;97841.84;;;2.61;54.33
50977;BME280;36992;48.200;12.418;2023-02-16T07:20:17;97845.28;;;2.62;54.04
50977;BME280;36992;48.200;12.418;2023-02-16T07:22:44;97845.28;;;2.62;54.04
50977;BME280;36992;48.200;12.418;2023-02-16T07:25:10;97855.72;;;2.63;53.91
50977;BME280;36992;48.200;12.418;2023-02-16T07:27:37;97855.72;;;2.63;53.69
50977;BME280;36992;48.200;12.418;2023-02-16T07:30:04;97853.06;;;2.63;53.70
50977;BME280;36992;48.200;12.418;2023-02-16T07:32:32;97852.03;;;2.64;53.68
50977;BME280;36992;48.200;12.418;2023-02-16T07:34:58;97848.78;;;2.62;53.91
50977;BME280;36992;48.200;12.418;2023-02-16T07:37:25;97847.16;;;2.61;53.87
50977;BME280;36992;48.200;12.418;2023-02-16T07:39:51;97847.94;;;2.62;53.71
50977;BME280;36992;48.200;12.418;2023-02-16T07:42:18;97853.28;;;2.62;53.97
50977;BME280;36992;48.200;12.418;2023-02-16T07:44:44;97853.28;;;2.62;54.23
50977;BME280;36992;48.200;12.418;2023-02-16T07:47:11;97860.25;;;2.63;53.90
50977;BME280;36992;48.200;12.418;2023-02-16T07:49:40;97861.88;;;2.64;54.36
50977;BME280;36992;48.200;12.418;2023-02-16T07:52:06;97861.06;;;2.63;54.15
50977;BME280;36992;48.200;12.418;2023-02-16T07:54:33;97855.72;;;2.63;54.40
50977;BME280;36992;48.200;12.418;2023-02-16T07:56:59;97851.44;;;2.62;54.41
50977;BME280;36992;48.200;12.418;2023-02-16T07:59:25;97861.88;;;2.64;54.71
50977;BME280;36992;48.200;12.418;2023-02-16T08:01:52;97859.81;;;2.66;54.70
50977;BME280;36992;48.200;12.418;2023-02-16T08:04:18;97858.56;;;2.68;54.74
50977;BME280;36992;48.200;12.418;2023-02-16T08:06:46;97854.69;;;2.71;54.58
50977;BME280;36992;48.200;12.418;2023-02-16T08:09:13;97859.78;;;2.73;54.90
50977;BME280;36992;48.200;12.418;2023-02-16T08:11:40;97854.03;;;2.76;54.74
50977;BME280;36992;48.200;12.418;2023-02-16T08:14:07;97857.06;;;2.79;54.70
50977;BME280;36992;48.200;12.418;2023-02-16T08:16:33;97854.00;;;2.82;54.77
50977;BME280;36992;48.200;12.418;2023-02-16T08:19:01;97854.41;;;2.86;54.66
50977;BME280;36992;48.200;12.418;2023-02-16T08:21:30;97853.75;;;2.91;54.38
50977;BME280;36992;48.200;12.418;2023-02-16T08:24:00;97852.28;;;2.95;54.33
50977;BME280;36992;48.200;12.418;2023-02-16T08:26:28;97860.88;;;2.97;54.61
50977;BME280;36992;48.200;12.418;2023-02-16T08:28:56;97854.97;;;2.95;54.88
50977;BME280;36992;48.200;12.418;2023-02-16T08:31:25;97860.88;;;2.97;55.11
50977;BME280;36992;48.200;12.418;2023-02-16T08:33:53;97857.75;;;3.00;55.03
50977;BME280;36992;48.200;12.418;2023-02-16T08:36:22;97858.97;;;3.04;55.14
50977;BME280;36992;48.200;12.418;2023-02-16T08:38:49;97862.22;;;3.06;55.46
50977;BME280;36992;48.200;12.418;2023-02-16T08:41:18;97866.09;;;3.10;55.50
50977;BME280;36992;48.200;12.418;2023-02-16T08:43:45;97869.38;;;3.13;55.60
50977;BME280;36992;48.200;12.418;2023-02-16T08:46:12;97865.47;;;3.15;55.59
50977;BME280;36992;48.200;12.418;2023-02-16T08:48:40;97868.50;;;3.19;55.35
50977;BME280;36992;48.200;12.418;2023-02-16T08:51:12;97875.41;;;3.27;55.38
50977;BME280;36992;48.200;12.418;2023-02-16T08:53:39;97875.22;;;3.28;55.76
50977;BME280;36992;48.200;12.418;2023-02-16T08:56:06;97881.13;;;3.30;55.73
50977;BME280;36992;48.200;12.418;2023-02-16T08:58:35;97883.97;;;3.35;55.92
50977;BME280;36992;48.200;12.418;2023-02-16T09:01:03;97882.94;;;3.36;55.87
50977;BME280;36992;48.200;12.418;2023-02-16T09:03:30;97883.94;;;3.42;55.90
50977;BME280;36992;48.200;12.418;2023-02-16T09:05:59;97883.06;;;3.48;55.94
50977;BME280;36992;48.200;12.418;2023-02-16T09:08:26;97881.81;;;3.51;55.97
50977;BME280;36992;48.200;12.418;2023-02-16T09:10:53;97881.94;;;3.56;56.06
50977;BME280;36992;48.200;12.418;2023-02-16T09:13:19;97878.88;;;3.59;56.02
50977;BME280;36992;48.200;12.418;2023-02-16T09:15:47;97872.66;;;3.66;56.16
50977;BME280;36992;48.200;12.418;2023-02-16T09:18:14;97871.41;;;3.68;56.39
50977;BME280;36992;48.200;12.418;2023-02-16T09:20:42;97873.41;;;3.73;55.90
50977;BME280;36992;48.200;12.418;2023-02-16T09:23:09;97876.47;;;3.76;56.39
50977;BME280;36992;48.200;12.418;2023-02-16T09:25:37;97875.78;;;3.81;57.02
50977;BME280;36992;48.200;12.418;2023-02-16T09:28:05;97881.28;;;3.86;56.65
50977;BME280;36992;48.200;12.418;2023-02-16T09:30:34;97880.41;;;3.92;56.67
50977;BME280;36992;48.200;12.418;2023-02-16T09:33:03;97881.41;;;3.98;57.20
50977;BME280;36992;48.200;12.418;2023-02-16T09:35:31;97881.78;;;4.02;57.30
50977;BME280;36992;48.200;12.418;2023-02-16T09:37:57;97885.38;;;4.08;57.04
50977;BME280;36992;48.200;12.418;2023-02-16T09:40:24;97886.38;;;4.13;57.04
50977;BME280;36992;48.200;12.418;2023-02-16T09:43:02;97881.53;;;4.22;57.13
50977;BME280;36992;48.200;12.418;2023-02-16T09:45:31;97870.44;;;4.25;57.66
50977;BME280;36992;48.200;12.418;2023-02-16T09:48:16;97868.28;;;4.34;57.62
50977;BME280;36992;48.200;12.418;2023-02-16T09:50:46;97862.50;;;4.37;58.15
50977;BME280;36992;48.200;12.418;2023-02-16T09:53:20;97864.88;;;4.45;57.83
50977;BME280;36992;48.200;12.418;2023-02-16T09:55:53;97864.00;;;4.52;57.66
50977;BME280;36992;48.200;12.418;2023-02-16T09:58:32;97862.25;;;4.57;57.65
50977;BME280;36992;48.200;12.418;2023-02-16T10:01:07;97856.03;;;4.64;57.45
50977;BME280;36992;48.200;12.418;2023-02-16T10:03:51;97856.16;;;4.69;57.05
50977;BME280;36992;48.200;12.418;2023-02-16T10:06:41;97855.06;;;4.77;56.86
50977;BME280;36992;48.200;12.418;2023-02-16T10:09:15;97858.28;;;4.79;57.34
50977;BME280;36992;48.200;12.418;2023-02-16T10:11:45;97861.09;;;4.84;57.81
50977;BME280;36992;48.200;12.418;2023-02-16T10:14:23;97861.00;;;4.91;57.34
50977;BME280;36992;48.200;12.418;2023-02-16T10:16:53;97865.69;;;4.95;57.48
50977;BME280;36992;48.200;12.418;2023-02-16T10:19:27;97851.63;;;5.00;57.56
50977;BME280;36992;48.200;12.418;2023-02-16T10:22:01;97850.94;;;5.05;57.76
50977;BME280;36992;48.200;12.418;2023-02-16T10:24:30;97859.94;;;5.10;57.62
50977;BME280;36992;48.200;12.418;2023-02-16T10:27:06;97851.78;;;5.17;56.96
50977;BME280;36992;48.200;12.418;2023-02-16T10:29:36;97845.41;;;5.18;57.58
50977;BME280;36992;48.200;12.418;2023-02-16T10:32:12;97854.94;;;5.26;57.52
50977;BME280;36992;48.200;12.418;2023-02-16T10:34:48;97849.75;;;5.31;57.61
50977;BME280;36992;48.200;12.418;2023-02-16T10:37:25;97832.78;;;5.37;57.49
50977;BME280;36992;48.200;12.418;2023-02-16T10:40:07;97840.69;;;5.44;57.62
50977;BME280;36992;48.200;12.418;2023-02-16T10:42:39;97832.78;;;5.49;57.52
50977;BME280;36992;48.200;12.418;2023-02-16T10:45:19;97834.53;;;5.56;57.62
50977;BME280;36992;48.200;12.418;2023-02-16T10:47:48;97841.06;;;5.60;58.14
50977;BME280;36992;48.200;12.418;2023-02-16T10:50:22;97835.34;;;5.68;57.80
50977;BME280;36992;48.200;12.418;2023-02-16T10:52:51;97833.84;;;5.72;58.19
50977;BME280;36992;48.200;12.418;2023-02-16T10:55:21;97839.09;;;5.79;58.20
50977;BME280;36992;48.200;12.418;2023-02-16T10:57:53;97835.84;;;5.89;57.51
50977;BME280;36992;48.200;12.418;2023-02-16T11:00:25;97826.88;;;5.95;57.39
50977;BME280;36992;48.200;12.418;2023-02-16T11:02:55;97837.09;;;5.98;57.68
50977;BME280;36992;48.200;12.418;2023-02-16T11:05:32;97825.03;;;6.07;57.10
50977;BME280;36992;48.200;12.418;2023-02-16T11:08:01;97826.16;;;6.12;57.61
50977;BME280;36992;48.200;12.418;2023-02-16T11:10:37;97819.41;;;6.21;57.23
50977;BME280;36992;48.200;12.418;2023-02-16T11:13:04;97824.28;;;6.24;57.48
50977;BME280;36992;48.200;12.418;2023-02-16T11:15:31;97819.59;;;6.31;57.56
50977;BME280;36992;48.200;12.418;2023-02-16T11:18:00;97814.94;;;6.39;57.37
50977;BME280;36992;48.200;12.418;2023-02-16T11:20:32;97808.66;;;6.45;57.38
50977;BME280;36992;48.200;12.418;2023-02-16T11:23:13;97812.56;;;6.54;56.78
50977;BME280;36992;48.200;12.418;2023-02-16T11:25:40;97805.09;;;6.56;57.32
50977;BME280;36992;48.200;12.418;2023-02-16T11:28:07;97797.97;;;6.62;57.32
50977;BME280;36992;48.200;12.418;2023-02-16T11:30:38;97806.44;;;6.71;57.42
50977;BME280;36992;48.200;12.418;2023-02-16T11:33:20;97805.00;;;6.80;56.45
50977;BME280;36992;48.200;12.418;2023-02-16T11:35:49;97792.19;;;6.82;57.00
50977;BME280;36992;48.200;12.418;2023-02-16T11:38:27;97798.44;;;6.88;57.04
50977;BME280;36992;48.200;12.418;2023-02-16T11:40:55;97790.16;;;6.90;57.23
50977;BME280;36992;48.200;12.418;2023-02-16T11:43:25;97787.31;;;6.96;57.03
50977;BME280;36992;48.200;12.418;2023-02-16T11:46:01;97790.91;;;7.02;56.86
50977;BME280;36992;48.200;12.418;2023-02-16T11:48:29;97785.06;;;7.05;57.48
50977;BME280;36992;48.200;12.418;2023-02-16T11:50:59;97780.94;;;7.14;57.05
50977;BME280;36992;48.200;12.418;2023-02-16T11:53:29;97775.66;;;7.20;56.86
50977;BME280;36992;48.200;12.418;2023-02-16T11:56:21;97774.75;;;7.31;56.46
50977;BME280;36992;48.200;12.418;2023-02-16T11:59:06;97773.22;;;7.35;56.79
50977;BME280;36992;48.200;12.418;2023-02-16T12:01:56;97764.41;;;7.40;56.75
50977;BME280;36992;48.200;12.418;2023-02-16T12:04:37;97762.66;;;7.46;56.90
50977;BME280;36992;48.200;12.418;2023-02-16T12:07:18;97764.34;;;7.52;56.84
50977;BME280;36992;48.200;12.418;2023-02-16T12:09:52;97764.41;;;7.57;56.96
50977;BME280;36992;48.200;12.418;2023-02-16T12:12:30;97759.09;;;7.62;56.97
50977;BME280;36992;48.200;12.418;2023-02-16T12:15:02;97754.88;;;7.66;57.57
50977;BME280;36992;48.200;12.418;2023-02-16T12:17:43;97753.66;;;7.74;56.92
50977;BME280;36992;48.200;12.418;2023-02-16T12:20:31;97750.53;;;7.82;57.10
50977;BME280;36992;48.200;12.418;2023-02-16T12:23:13;97745.00;;;7.89;57.42
50977;BME280;36992;48.200;12.418;2023-02-16T12:25:48;97744.78;;;7.96;56.90
50977;BME280;36992;48.200;12.418;2023-02-16T12:28:22;97740.31;;;8.02;57.14
50977;BME280;36992;48.200;12.418;2023-02-16T12:30:59;97731.25;;;8.08;57.17
50977;BME280;36992;48.200;12.418;2023-02-16T12:33:40;97732.44;;;8.17;57.18
50977;BME280;36992;48.200;12.418;2023-02-16T12:36:29;97727.69;;;8.24;56.98
50977;BME280;36992;48.200;12.418;2023-02-16T12:39:06;97720.75;;;8.29;56.86
50977;BME280;36992;48.200;12.418;2023-02-16T12:41:45;97710.63;;;8.36;56.65
50977;BME280;36992;48.200;12.418;2023-02-16T12:44:17;97710.13;;;8.39;56.65
50977;BME280;36992;48.200;12.418;2023-02-16T12:46:46;97704.78;;;8.44;56.54
50977;BME280;36992;48.200;12.418;2023-02-16T12:49:16;97705.91;;;8.48;56.18
50977;BME280;36992;48.200;12.418;2023-02-16T12:51:49;97708.91;;;8.52;56.07
50977;BME280;36992;48.200;12.418;2023-02-16T12:54:22;97705.47;;;8.57;56.31
50977;BME280;36992;48.200;12.418;2023-02-16T12:56:53;97698.53;;;8.61;55.74
50977;BME280;36992;48.200;12.418;2023-02-16T12:59:25;97699.91;;;8.63;55.94
50977;BME280;36992;48.200;12.418;2023-02-16T13:01:57;97697.50;;;8.67;55.78
50977;BME280;36992;48.200;12.418;2023-02-16T13:04:37;97693.81;;;8.73;55.81
50977;BME280;36992;48.200;12.418;2023-02-16T13:07:12;97687.94;;;8.76;55.71
50977;BME280;36992;48.200;12.418;2023-02-16T13:09:50;97678.28;;;8.81;55.68
50977;BME280;36992;48.200;12.418;2023-02-16T13:12:25;97673.19;;;8.84;55.50
50977;BME280;36992;48.200;12.418;2023-02-16T13:15:02;97675.38;;;8.87;55.17
50977;BME280;36992;48.200;12.418;2023-02-16T13:17:33;97682.13;;;8.90;55.11
50977;BME280;36992;48.200;12.418;2023-02-16T13:20:00;97670.56;;;8.89;55.32
50977;BME280;36992;48.200;12.418;2023-02-16T13:22:45;97664.16;;;8.96;55.30